^^
Your Local Weather - Clay, NY Station Historical Data
Daily Summary for September 4, 2017 Units:  English    Metric   Both
« Previous Day
Next Day »
Daily Weekly Monthly Yearly Custom
  High: Low: Average:
Temperature: 79.2 °F 54.3 °F 68.5 °F
Dew Point: 61.9 °F 51.9 °F 56.6 °F
Humidity: 94% 44% 68%
Wind Speed: 7.0mph 0.0mph 3.5mph
Wind Gust: 13.0mph - -
Wind- - SSW
Pressure: 29.83 in 29.57 in -
Precipitation: 0.04 in    
Historical Graphs
 
 
Tabular Data for September 4, 2017
Time Temperature Dew Point Pressure Wind Wind Speed Wind Gust Humidity Rainfall Rate (Hourly) solar
00:00 59.0 °F 55.8 °F 29.81 in SW 2.0 mph 2.0 mph 89% 0.00 in 0 W/m2
00:06 59.1 °F 55.9 °F 29.81 in WSW 2.0 mph 4.0 mph 89% 0.00 in 0 W/m2
00:10 59.1 °F 55.9 °F 29.81 in South 2.0 mph 2.0 mph 89% 0.00 in 0 W/m2
00:16 59.2 °F 56.0 °F 29.81 in West 2.0 mph 4.0 mph 89% 0.00 in 0 W/m2
00:22 59.2 °F 56.0 °F 29.81 in West 3.0 mph 5.0 mph 89% 0.00 in 0 W/m2
00:28 59.3 °F 55.7 °F 29.81 in SW 2.0 mph 5.0 mph 88% 0.00 in 0 W/m2
00:34 59.3 °F 55.7 °F 29.81 in SW 2.0 mph 7.0 mph 88% 0.00 in 0 W/m2
00:40 59.4 °F 55.8 °F 29.81 in WSW 3.0 mph 4.0 mph 88% 0.00 in 0 W/m2
00:46 59.5 °F 55.6 °F 29.81 in SW 2.0 mph 4.0 mph 87% 0.00 in 0 W/m2
00:52 59.5 °F 55.6 °F 29.81 in SW 2.0 mph 4.0 mph 87% 0.00 in 0 W/m2
00:58 59.4 °F 55.5 °F 29.81 in WSW 1.0 mph 4.0 mph 87% 0.00 in 0 W/m2
01:04 59.2 °F 55.3 °F 29.81 in WSW 2.0 mph 4.0 mph 87% 0.00 in 0 W/m2
01:10 59.1 °F 55.2 °F 29.81 in SW 2.0 mph 2.0 mph 87% 0.00 in 0 W/m2
01:16 58.9 °F 55.0 °F 29.81 in WSW 1.0 mph 5.0 mph 87% 0.00 in 0 W/m2
01:22 58.8 °F 54.9 °F 29.81 in SW 2.0 mph 3.0 mph 87% 0.00 in 0 W/m2
01:28 58.7 °F 54.8 °F 29.81 in SW 2.0 mph 3.0 mph 87% 0.00 in 0 W/m2
01:34 58.5 °F 55.0 °F 29.82 in WSW 2.0 mph 2.0 mph 88% 0.00 in 0 W/m2
01:40 58.4 °F 54.9 °F 29.82 in WSW 3.0 mph 6.0 mph 88% 0.00 in 0 W/m2
01:46 58.3 °F 54.8 °F 29.81 in WSW 3.0 mph 6.0 mph 88% 0.00 in 0 W/m2
01:52 58.4 °F 54.9 °F 29.82 in SW 3.0 mph 5.0 mph 88% 0.00 in 0 W/m2
01:58 58.5 °F 55.0 °F 29.81 in WSW 3.0 mph 5.0 mph 88% 0.00 in 0 W/m2
02:04 58.6 °F 54.7 °F 29.81 in SW 3.0 mph 3.0 mph 87% 0.00 in 0 W/m2
02:10 58.8 °F 54.9 °F 29.81 in SW 3.0 mph 3.0 mph 87% 0.00 in 0 W/m2
02:16 58.8 °F 54.6 °F 29.81 in SW 3.0 mph 3.0 mph 86% 0.00 in 0 W/m2
02:22 58.8 °F 54.6 °F 29.81 in SW 3.0 mph 3.0 mph 86% 0.00 in 0 W/m2
02:28 58.6 °F 54.4 °F 29.82 in WSW 2.0 mph 3.0 mph 86% 0.00 in 0 W/m2
02:34 58.4 °F 54.2 °F 29.82 in SW 2.0 mph 4.0 mph 86% 0.00 in 0 W/m2
02:40 58.4 °F 54.5 °F 29.81 in WSW 3.0 mph 3.0 mph 87% 0.00 in 0 W/m2
02:46 58.3 °F 54.4 °F 29.81 in WSW 2.0 mph 4.0 mph 87% 0.00 in 0 W/m2
02:52 58.2 °F 54.3 °F 29.81 in SSW 2.0 mph 2.0 mph 87% 0.00 in 0 W/m2
02:58 58.2 °F 54.3 °F 29.82 in WSW 2.0 mph 4.0 mph 87% 0.00 in 0 W/m2
03:04 58.1 °F 54.2 °F 29.82 in WSW 1.0 mph 2.0 mph 87% 0.00 in 0 W/m2
03:10 58.0 °F 54.2 °F 29.82 in Calm   2.0 mph 87% 0.00 in 0 W/m2
03:16 57.8 °F 54.0 °F 29.82 in Calm   4.0 mph 87% 0.00 in 0 W/m2
03:22 57.7 °F 53.9 °F 29.82 in WSW 1.0 mph 1.0 mph 87% 0.00 in 0 W/m2
03:24 57.8 °F 54.0 °F 29.82 in WSW 1.0 mph 1.0 mph 87% 0.00 in 0 W/m2
03:30 57.8 °F 54.3 °F 29.82 in WSW 1.0 mph 1.0 mph 88% 0.00 in 0 W/m2
03:36 58.0 °F 54.2 °F 29.82 in WSW 1.0 mph 3.0 mph 87% 0.00 in 0 W/m2
03:42 58.2 °F 54.3 °F 29.81 in WSW 1.0 mph 2.0 mph 87% 0.00 in 0 W/m2
03:48 58.3 °F 54.4 °F 29.81 in WSW 1.0 mph 2.0 mph 87% 0.00 in 0 W/m2
03:54 58.3 °F 54.4 °F 29.82 in Calm   2.0 mph 87% 0.00 in 0 W/m2
04:00 58.1 °F 54.2 °F 29.82 in Calm     87% 0.00 in 0 W/m2
04:06 57.9 °F 54.1 °F 29.82 in Calm     87% 0.00 in 0 W/m2
04:12 57.5 °F 53.7 °F 29.82 in Calm     87% 0.00 in 0 W/m2
04:18 57.1 °F 53.6 °F 29.82 in Calm     88% 0.00 in 0 W/m2
04:24 56.8 °F 53.3 °F 29.82 in Calm     88% 0.00 in 0 W/m2
04:30 56.4 °F 52.9 °F 29.83 in Calm     88% 0.00 in 0 W/m2
04:36 56.2 °F 53.0 °F 29.83 in Calm     89% 0.00 in 0 W/m2
04:42 55.8 °F 52.6 °F 29.83 in Calm     89% 0.00 in 0 W/m2
04:48 55.5 °F 52.3 °F 29.82 in Calm     89% 0.00 in 0 W/m2
04:54 55.1 °F 52.2 °F 29.83 in Calm     90% 0.00 in 0 W/m2
05:00 55.0 °F 52.1 °F 29.83 in Calm     90% 0.00 in 0 W/m2
05:06 54.8 °F 51.9 °F 29.83 in Calm     90% 0.00 in 0 W/m2
05:12 54.7 °F 52.1 °F 29.83 in Calm     91% 0.00 in 0 W/m2
05:18 55.6 °F 53.3 °F 29.83 in WSW 1.0 mph 1.0 mph 92% 0.00 in 0 W/m2
05:24 56.1 °F 53.8 °F 29.83 in Calm   1.0 mph 92% 0.00 in 0 W/m2
05:30 56.2 °F 53.9 °F 29.83 in WSW 1.0 mph 1.0 mph 92% 0.00 in 0 W/m2
05:36 56.4 °F 54.1 °F 29.83 in WSW 1.0 mph 3.0 mph 92% 0.00 in 0 W/m2
05:42 56.6 °F 54.3 °F 29.83 in WSW 1.0 mph 3.0 mph 92% 0.00 in 0 W/m2
05:48 56.7 °F 54.4 °F 29.83 in Calm   3.0 mph 92% 0.00 in 0 W/m2
05:56 56.5 °F 54.2 °F 29.83 in Calm     92% 0.00 in 0 W/m2
06:02 56.4 °F 54.1 °F 29.83 in Calm     92% 0.00 in 0 W/m2
06:08 55.9 °F 53.3 °F 29.83 in Calm     91% 0.00 in 0 W/m2
06:14 55.6 °F 53.0 °F 29.83 in Calm     91% 0.00 in 0 W/m2
06:20 55.2 °F 52.6 °F 29.83 in Calm     91% 0.00 in 0 W/m2
06:26 54.8 °F 52.5 °F 29.83 in Calm     92% 0.00 in 0 W/m2
06:32 54.7 °F 52.4 °F 29.83 in Calm     92% 0.00 in 0 W/m2
06:38 54.5 °F 52.2 °F 29.83 in Calm     92% 0.00 in 7 W/m2
06:44 54.4 °F 52.1 °F 29.83 in Calm     92% 0.00 in 11 W/m2
06:50 54.3 °F 52.0 °F 29.83 in Calm     92% 0.00 in 14 W/m2
06:56 54.3 °F 52.0 °F 29.83 in Calm     92% 0.00 in 18 W/m2
07:02 54.4 °F 52.4 °F 29.83 in Calm     93% 0.00 in 26 W/m2
07:08 54.5 °F 52.5 °F 29.83 in Calm     93% 0.00 in 35 W/m2
07:14 54.6 °F 52.6 °F 29.83 in Calm     93% 0.00 in 47 W/m2
07:20 54.8 °F 52.8 °F 29.83 in Calm     93% 0.00 in 56 W/m2
07:26 55.1 °F 53.1 °F 29.83 in Calm     93% 0.00 in 70 W/m2
07:32 55.6 °F 53.6 °F 29.83 in Calm     93% 0.00 in 69 W/m2
07:38 56.5 °F 54.5 °F 29.83 in Calm     93% 0.00 in 84 W/m2
07:44 57.3 °F 55.6 °F 29.83 in Calm     94% 0.00 in 76 W/m2
07:50 58.2 °F 56.2 °F 29.83 in Calm     93% 0.00 in 98 W/m2
07:56 59.2 °F 57.2 °F 29.82 in WSW 1.0 mph 1.0 mph 93% 0.00 in 93 W/m2
08:02 60.2 °F 57.6 °F 29.82 in SW 1.0 mph 1.0 mph 91% 0.00 in 74 W/m2
08:08 61.2 °F 57.3 °F 29.82 in SSW 2.0 mph 2.0 mph 87% 0.00 in 88 W/m2
08:14 62.0 °F 57.1 °F 29.82 in SSW 2.0 mph 2.0 mph 84% 0.00 in 93 W/m2
08:20 62.6 °F 57.0 °F 29.82 in SW 2.0 mph 2.0 mph 82% 0.00 in 90 W/m2
08:26 63.3 °F 57.0 °F 29.82 in South 1.0 mph 5.0 mph 80% 0.00 in 107 W/m2
08:32 64.0 °F 57.0 °F 29.82 in SSE 3.0 mph 5.0 mph 78% 0.00 in 88 W/m2
08:38 64.6 °F 57.2 °F 29.82 in SW 3.0 mph 5.0 mph 77% 0.00 in 107 W/m2
08:44 65.1 °F 57.0 °F 29.81 in SW 3.0 mph 6.0 mph 75% 0.00 in 160 W/m2
08:50 65.6 °F 57.1 °F 29.81 in South 4.0 mph 4.0 mph 74% 0.00 in 269 W/m2
08:56 66.0 °F 57.1 °F 29.81 in SW 4.0 mph 4.0 mph 73% 0.00 in 120 W/m2
09:02 66.5 °F 57.2 °F 29.81 in WSW 3.0 mph 5.0 mph 72% 0.00 in 116 W/m2
09:08 66.8 °F 57.5 °F 29.81 in South 3.0 mph 5.0 mph 72% 0.00 in 153 W/m2
09:14 67.1 °F 57.4 °F 29.81 in SSW 3.0 mph 6.0 mph 71% 0.00 in 169 W/m2
09:20 67.3 °F 57.2 °F 29.81 in SSW 4.0 mph 4.0 mph 70% 0.00 in 178 W/m2
09:26 67.5 °F 57.4 °F 29.81 in West 4.0 mph 6.0 mph 70% 0.00 in 149 W/m2
09:32 67.8 °F 57.3 °F 29.81 in SW 3.0 mph 7.0 mph 69% 0.00 in 181 W/m2
09:38 68.1 °F 57.5 °F 29.81 in SSW 4.0 mph 7.0 mph 69% 0.00 in 211 W/m2
09:44 68.5 °F 57.5 °F 29.81 in SW 4.0 mph 6.0 mph 68% 0.00 in 469 W/m2
09:50 69.0 °F 58.0 °F 29.81 in SW 4.0 mph 6.0 mph 68% 0.00 in 457 W/m2
09:56 69.3 °F 57.5 °F 29.81 in SSW 4.0 mph 8.0 mph 66% 0.00 in 526 W/m2
10:02 69.6 °F 57.7 °F 29.81 in SW 4.0 mph 7.0 mph 66% 0.00 in 529 W/m2
10:08 70.1 °F 58.2 °F 29.81 in SSW 4.0 mph 8.0 mph 66% 0.00 in 538 W/m2
10:14 71.0 °F 58.2 °F 29.81 in SSW 3.0 mph 6.0 mph 64% 0.00 in 577 W/m2
10:22 71.4 °F 59.0 °F 29.81 in WSW 4.0 mph 4.0 mph 65% 0.00 in 599 W/m2
10:28 71.9 °F 58.6 °F 29.80 in West 4.0 mph 5.0 mph 63% 0.00 in 612 W/m2
10:36 72.8 °F 59.9 °F 29.80 in WSW 3.0 mph 4.0 mph 64% 0.00 in 633 W/m2
10:42 73.5 °F 59.7 °F 29.79 in WSW 2.0 mph 3.0 mph 62% 0.00 in 645 W/m2
10:48 73.4 °F 58.7 °F 29.79 in South 3.0 mph 8.0 mph 60% 0.00 in 659 W/m2
10:54 73.4 °F 58.2 °F 29.79 in SW 4.0 mph 6.0 mph 59% 0.00 in 671 W/m2
11:00 73.5 °F 57.3 °F 29.79 in South 5.0 mph 5.0 mph 57% 0.00 in 682 W/m2
11:06 74.2 °F 58.5 °F 29.79 in SW 5.0 mph 5.0 mph 58% 0.00 in 689 W/m2
11:12 74.2 °F 57.0 °F 29.79 in SW 3.0 mph 9.0 mph 55% 0.00 in 696 W/m2
11:18 74.3 °F 57.1 °F 29.78 in SW 4.0 mph 10.0 mph 55% 0.00 in 703 W/m2
11:24 74.5 °F 57.8 °F 29.78 in WNW 4.0 mph 5.0 mph 56% 0.00 in 707 W/m2
11:30 74.5 °F 57.3 °F 29.78 in West 5.0 mph 5.0 mph 55% 0.00 in 717 W/m2
11:36 74.9 °F 57.6 °F 29.78 in SSE 5.0 mph 10.0 mph 55% 0.00 in 726 W/m2
11:42 74.9 °F 58.1 °F 29.78 in SW 5.0 mph 6.0 mph 56% 0.00 in 737 W/m2
11:48 75.3 °F 56.5 °F 29.77 in WSW 5.0 mph 6.0 mph 52% 0.00 in 742 W/m2
11:54 75.1 °F 57.3 °F 29.76 in WSW 5.0 mph 5.0 mph 54% 0.00 in 747 W/m2
12:00 75.5 °F 57.2 °F 29.76 in WSW 4.0 mph 5.0 mph 53% 0.00 in 754 W/m2
12:06 75.5 °F 57.2 °F 29.76 in SW 5.0 mph 7.0 mph 53% 0.00 in 761 W/m2
12:12 75.3 °F 55.9 °F 29.76 in SW 6.0 mph 7.0 mph 51% 0.00 in 766 W/m2
12:18 75.9 °F 57.0 °F 29.75 in SW 6.0 mph 7.0 mph 52% 0.00 in 773 W/m2
12:24 76.8 °F 57.3 °F 29.75 in SSW 4.0 mph 5.0 mph 51% 0.00 in 780 W/m2
12:30 76.4 °F 55.8 °F 29.75 in WSW 4.0 mph 8.0 mph 49% 0.00 in 780 W/m2
12:36 76.2 °F 56.7 °F 29.75 in South 6.0 mph 12.0 mph 51% 0.00 in 789 W/m2
12:42 76.4 °F 54.7 °F 29.74 in SSW 5.0 mph 5.0 mph 47% 0.00 in 719 W/m2
12:48 76.2 °F 55.1 °F 29.74 in South 7.0 mph 7.0 mph 48% 0.00 in 766 W/m2
12:54 76.7 °F 55.5 °F 29.73 in SSW 6.0 mph 7.0 mph 48% 0.00 in 788 W/m2
13:00 76.8 °F 55.0 °F 29.73 in SW 6.0 mph 6.0 mph 47% 0.00 in 789 W/m2
13:06 77.2 °F 57.1 °F 29.73 in SSW 5.0 mph 6.0 mph 50% 0.00 in 789 W/m2
13:12 77.1 °F 54.7 °F 29.73 in South 5.0 mph 6.0 mph 46% 0.00 in 789 W/m2
13:18 77.4 °F 57.3 °F 29.73 in SW 5.0 mph 6.0 mph 50% 0.00 in 780 W/m2
13:24 77.2 °F 54.8 °F 29.72 in SSE 6.0 mph 8.0 mph 46% 0.00 in 782 W/m2
13:30 77.5 °F 56.8 °F 29.72 in WSW 6.0 mph 8.0 mph 49% 0.00 in 779 W/m2
13:36 77.2 °F 55.4 °F 29.72 in SW 6.0 mph 13.0 mph 47% 0.00 in 782 W/m2
13:42 77.3 °F 56.1 °F 29.71 in SW 7.0 mph 9.0 mph 48% 0.00 in 773 W/m2
13:48 77.9 °F 56.0 °F 29.71 in SSW 7.0 mph 9.0 mph 47% 0.00 in 763 W/m2
13:54 77.8 °F 56.0 °F 29.71 in SE 6.0 mph 7.0 mph 47% 0.00 in 758 W/m2
14:00 77.6 °F 55.2 °F 29.71 in SSW 7.0 mph 7.0 mph 46% 0.00 in 752 W/m2
14:06 77.9 °F 56.6 °F 29.70 in SE 7.0 mph 10.0 mph 48% 0.00 in 745 W/m2
14:12 78.2 °F 56.9 °F 29.70 in SSW 6.0 mph 6.0 mph 48% 0.00 in 738 W/m2
14:18 78.2 °F 55.7 °F 29.70 in WSW 6.0 mph 9.0 mph 46% 0.00 in 721 W/m2
14:24 78.3 °F 56.4 °F 29.70 in SSW 6.0 mph 8.0 mph 47% 0.00 in 712 W/m2
14:30 78.1 °F 56.2 °F 29.70 in SSW 6.0 mph 9.0 mph 47% 0.00 in 705 W/m2
14:36 78.1 °F 56.8 °F 29.70 in SW 7.0 mph 12.0 mph 48% 0.00 in 703 W/m2
14:44 78.4 °F 57.7 °F 29.70 in South 7.0 mph 10.0 mph 49% 0.00 in 691 W/m2
14:50 78.6 °F 59.0 °F 29.70 in SSE 6.0 mph 6.0 mph 51% 0.00 in 673 W/m2
14:56 78.6 °F 57.3 °F 29.70 in WSW 6.0 mph 8.0 mph 48% 0.00 in 657 W/m2
15:02 78.4 °F 55.9 °F 29.69 in SW 7.0 mph 8.0 mph 46% 0.00 in 640 W/m2
15:08 78.5 °F 55.4 °F 29.70 in WSW 7.0 mph 8.0 mph 45% 0.00 in 636 W/m2
15:14 78.3 °F 55.8 °F 29.69 in SSE 7.0 mph 8.0 mph 46% 0.00 in 599 W/m2
15:20 78.8 °F 58.0 °F 29.69 in SW 7.0 mph 7.0 mph 49% 0.00 in 594 W/m2
15:25 78.7 °F 55.0 °F 29.69 in SW 6.0 mph 7.0 mph 44% 0.00 in 578 W/m2
15:32 78.9 °F 56.4 °F 29.68 in SW 7.0 mph 7.0 mph 46% 0.00 in 566 W/m2
15:38 79.1 °F 56.5 °F 29.68 in SW 6.0 mph 9.0 mph 46% 0.00 in 529 W/m2
15:44 79.0 °F 57.0 °F 29.68 in South 6.0 mph 7.0 mph 47% 0.00 in 550 W/m2
15:50 79.2 °F 56.0 °F 29.68 in West 5.0 mph 9.0 mph 45% 0.00 in 557 W/m2
15:56 79.1 °F 57.1 °F 29.68 in SW 6.0 mph 9.0 mph 47% 0.00 in 584 W/m2
16:02 78.4 °F 57.1 °F 29.68 in SW 7.0 mph 12.0 mph 48% 0.00 in 529 W/m2
16:08 78.6 °F 57.8 °F 29.67 in South 7.0 mph 12.0 mph 49% 0.00 in 519 W/m2
16:14 78.6 °F 57.8 °F 29.67 in SW 7.0 mph 10.0 mph 49% 0.00 in 487 W/m2
16:20 78.4 °F 57.7 °F 29.67 in SW 7.0 mph 7.0 mph 49% 0.00 in 209 W/m2
16:26 78.3 °F 58.1 °F 29.67 in SSW 5.0 mph 7.0 mph 50% 0.00 in 174 W/m2
16:32 77.7 °F 57.0 °F 29.66 in South 6.0 mph 6.0 mph 49% 0.00 in 207 W/m2
16:38 78.2 °F 58.0 °F 29.66 in SSE 6.0 mph 13.0 mph 50% 0.00 in 448 W/m2
16:44 78.2 °F 57.5 °F 29.65 in South 5.0 mph 7.0 mph 49% 0.00 in 424 W/m2
16:50 78.4 °F 57.7 °F 29.65 in SW 7.0 mph 7.0 mph 49% 0.00 in 378 W/m2
16:56 78.4 °F 57.1 °F 29.65 in SW 7.0 mph 11.0 mph 48% 0.00 in 352 W/m2
17:02 78.3 °F 58.1 °F 29.65 in SSE 7.0 mph 8.0 mph 50% 0.00 in 330 W/m2
17:08 78.2 °F 57.5 °F 29.65 in SSE 7.0 mph 12.0 mph 49% 0.00 in 308 W/m2
17:16 78.0 °F 57.9 °F 29.64 in South 7.0 mph 7.0 mph 50% 0.00 in 193 W/m2
17:22 78.0 °F 57.3 °F 29.63 in South 7.0 mph 11.0 mph 49% 0.00 in 264 W/m2
17:28 77.7 °F 56.4 °F 29.63 in SSW 7.0 mph 11.0 mph 48% 0.00 in 265 W/m2
17:34 77.8 °F 57.1 °F 29.63 in SSW 7.0 mph 11.0 mph 49% 0.00 in 123 W/m2
17:40 77.4 °F 56.7 °F 29.63 in South 7.0 mph 12.0 mph 49% 0.00 in 118 W/m2
17:44 77.4 °F 56.2 °F 29.63 in SSE 7.0 mph 12.0 mph 48% 0.00 in 105 W/m2
17:50 77.2 °F 56.6 °F 29.62 in SSE 6.0 mph 7.0 mph 49% 0.00 in 81 W/m2
17:56 77.1 °F 57.0 °F 29.62 in SE 5.0 mph 5.0 mph 50% 0.00 in 81 W/m2
18:02 77.0 °F 56.9 °F 29.62 in SSW 5.0 mph 7.0 mph 50% 0.00 in 98 W/m2
18:08 77.0 °F 56.4 °F 29.62 in South 5.0 mph 10.0 mph 49% 0.00 in 86 W/m2
18:14 77.0 °F 56.4 °F 29.62 in SSW 6.0 mph 9.0 mph 49% 0.00 in 47 W/m2
18:20 77.1 °F 55.9 °F 29.62 in SSW 6.0 mph 6.0 mph 48% 0.00 in 88 W/m2
18:26 77.2 °F 55.4 °F 29.62 in SSE 6.0 mph 6.0 mph 47% 0.00 in 62 W/m2
18:32 77.1 °F 55.9 °F 29.62 in SSW 5.0 mph 6.0 mph 48% 0.00 in 46 W/m2
18:38 76.7 °F 55.5 °F 29.62 in SSW 5.0 mph 6.0 mph 48% 0.00 in 46 W/m2
18:44 76.4 °F 56.4 °F 29.60 in South 5.0 mph 6.0 mph 50% 0.00 in 40 W/m2
18:50 76.3 °F 57.4 °F 29.60 in SW 5.0 mph 5.0 mph 52% 0.00 in 26 W/m2
18:56 75.9 °F 58.1 °F 29.60 in SW 5.0 mph 5.0 mph 54% 0.00 in 18 W/m2
19:02 75.8 °F 58.0 °F 29.60 in South 6.0 mph 10.0 mph 54% 0.00 in 9 W/m2
19:08 75.6 °F 58.3 °F 29.59 in SSE 6.0 mph 10.0 mph 55% 0.00 in 5 W/m2
19:14 75.4 °F 58.6 °F 29.59 in South 5.0 mph 7.0 mph 56% 0.00 in 0 W/m2
19:20 75.3 °F 59.0 °F 29.59 in SSE 5.0 mph 5.0 mph 57% 0.00 in 0 W/m2
19:26 75.3 °F 58.5 °F 29.59 in SE 5.0 mph 9.0 mph 56% 0.00 in 0 W/m2
19:32 75.3 °F 58.5 °F 29.58 in South 6.0 mph 6.0 mph 56% 0.00 in 0 W/m2
19:38 75.4 °F 58.6 °F 29.59 in South 7.0 mph 8.0 mph 56% 0.00 in 0 W/m2
19:44 75.1 °F 58.3 °F 29.59 in SSW 6.0 mph 7.0 mph 56% 0.00 in 0 W/m2
19:50 75.2 °F 58.4 °F 29.59 in South 5.0 mph 5.0 mph 56% 0.00 in 0 W/m2
19:56 75.3 °F 58.5 °F 29.59 in SW 6.0 mph 7.0 mph 56% 0.00 in 0 W/m2
20:02 75.2 °F 58.4 °F 29.59 in SW 5.0 mph 7.0 mph 56% 0.00 in 0 W/m2
20:08 75.3 °F 58.0 °F 29.59 in SSW 6.0 mph 8.0 mph 55% 0.00 in 0 W/m2
20:14 75.2 °F 58.4 °F 29.59 in SW 5.0 mph 10.0 mph 56% 0.00 in 0 W/m2
20:20 75.2 °F 58.4 °F 29.59 in SSE 5.0 mph 7.0 mph 56% 0.00 in 0 W/m2
20:26 75.1 °F 57.8 °F 29.59 in SSW 5.0 mph 7.0 mph 55% 0.00 in 0 W/m2
20:32 75.0 °F 58.2 °F 29.59 in SSW 5.0 mph 6.0 mph 56% 0.00 in 0 W/m2
20:38 75.1 °F 58.3 °F 29.59 in SSW 5.0 mph 6.0 mph 56% 0.00 in 0 W/m2
20:44 75.0 °F 58.2 °F 29.59 in SSW 5.0 mph 7.0 mph 56% 0.00 in 0 W/m2
20:50 75.0 °F 58.2 °F 29.59 in WSW 4.0 mph 7.0 mph 56% 0.00 in 0 W/m2
20:56 75.1 °F 58.3 °F 29.60 in SSW 4.0 mph 7.0 mph 56% 0.00 in 0 W/m2
21:03 75.0 °F 58.7 °F 29.62 in NNE 3.0 mph 4.0 mph 57% 0.00 in 0 W/m2
21:08 74.7 °F 59.4 °F 29.62 in NNE 2.0 mph 4.0 mph 59% 0.00 in 0 W/m2
21:14 74.2 °F 59.9 °F 29.62 in NNE 1.0 mph 2.0 mph 61% 0.00 in 0 W/m2
21:20 73.1 °F 60.2 °F 29.62 in NNE 1.0 mph 1.0 mph 64% 0.00 in 0 W/m2
21:26 72.1 °F 60.5 °F 29.62 in NE 1.0 mph 2.0 mph 67% 0.00 in 0 W/m2
21:32 71.7 °F 59.7 °F 29.61 in Calm   1.0 mph 66% 0.00 in 0 W/m2
21:38 72.3 °F 60.3 °F 29.62 in South 1.0 mph 6.0 mph 66% 0.00 in 0 W/m2
21:44 72.8 °F 59.9 °F 29.62 in SW 2.0 mph 5.0 mph 64% 0.00 in 0 W/m2
21:50 73.0 °F 59.7 °F 29.61 in WSW 3.0 mph 3.0 mph 63% 0.00 in 0 W/m2
21:56 73.1 °F 59.8 °F 29.60 in SSW 3.0 mph 5.0 mph 63% 0.00 in 0 W/m2
22:02 73.4 °F 59.6 °F 29.61 in SSW 4.0 mph 5.0 mph 62% 0.00 in 0 W/m2
22:10 73.4 °F 59.6 °F 29.61 in SSE 3.0 mph 7.0 mph 62% 0.00 in 0 W/m2
22:16 73.7 °F 59.9 °F 29.62 in SW 4.0 mph 7.0 mph 62% 0.00 in 0 W/m2
22:22 73.7 °F 59.9 °F 29.61 in SW 3.0 mph 4.0 mph 62% 0.00 in 0 W/m2
22:28 73.6 °F 59.8 °F 29.61 in SSW 3.0 mph 4.0 mph 62% 0.00 in 0 W/m2
22:34 72.8 °F 61.2 °F 29.61 in SSE 3.0 mph 5.0 mph 67% 0.15 in 0 W/m2
22:40 71.5 °F 61.6 °F 29.61 in South 2.0 mph 2.0 mph 71% 0.06 in 0 W/m2
22:46 70.5 °F 61.4 °F 29.60 in South 2.0 mph 3.0 mph 73% 0.04 in 0 W/m2
22:52 69.7 °F 61.4 °F 29.60 in South 2.0 mph 3.0 mph 75% 0.00 in 0 W/m2
22:58 69.4 °F 61.9 °F 29.60 in SSE 2.0 mph 5.0 mph 77% 0.00 in 0 W/m2
23:04 69.9 °F 61.6 °F 29.60 in South 3.0 mph 4.0 mph 75% 0.00 in 0 W/m2
23:10 70.4 °F 61.3 °F 29.59 in WSW 3.0 mph 5.0 mph 73% 0.00 in 0 W/m2
23:16 70.7 °F 61.6 °F 29.59 in South 3.0 mph 5.0 mph 73% 0.00 in 0 W/m2
23:22 71.1 °F 61.2 °F 29.59 in South 3.0 mph 6.0 mph 71% 0.00 in 0 W/m2
23:28 71.5 °F 61.2 °F 29.59 in SE 4.0 mph 6.0 mph 70% 0.00 in 0 W/m2
23:34 72.0 °F 61.3 °F 29.58 in South 5.0 mph 8.0 mph 69% 0.00 in 0 W/m2
23:40 72.2 °F 61.0 °F 29.58 in South 5.0 mph 5.0 mph 68% 0.00 in 0 W/m2
23:46 72.6 °F 61.4 °F 29.58 in SW 5.0 mph 9.0 mph 68% 0.00 in 0 W/m2
23:52 72.6 °F 61.4 °F 29.57 in South 5.0 mph 7.0 mph 68% 0.00 in 0 W/m2
23:58 72.7 °F 61.1 °F 29.58 in SW 4.0 mph 7.0 mph 67% 0.00 in 0 W/m2
Country Meadow, Clay, NY, USA
Compliments of Weather Underground - 2 mb